createdAt,value
2019-06-01T00:00:11.636Z,77.40
2019-06-01T00:02:38.693Z,75.90
2019-06-01T00:05:07.759Z,75.60
2019-06-01T00:07:36.680Z,75.20
2019-06-01T00:10:08.332Z,78.00
2019-06-01T00:12:37.165Z,78.60
2019-06-01T00:15:06.808Z,78.70
2019-06-01T00:17:35.671Z,78.80
2019-06-01T00:20:05.786Z,79.20
2019-06-01T00:22:34.679Z,79.10
2019-06-01T00:25:04.313Z,78.90
2019-06-01T00:27:33.148Z,78.90
2019-06-01T00:30:02.033Z,78.50
2019-06-01T00:32:30.892Z,79.50
2019-06-01T00:34:59.747Z,80.00
2019-06-01T00:37:28.591Z,79.50
2019-06-01T00:39:57.410Z,80.00
2019-06-01T00:42:26.276Z,78.50
2019-06-01T00:44:55.121Z,77.30
2019-06-01T00:47:24.013Z,77.00
2019-06-01T00:49:53.151Z,76.90
2019-06-01T00:52:22.184Z,76.40
2019-06-01T00:54:51.684Z,76.30
2019-06-01T00:57:22.272Z,76.20
2019-06-01T00:59:53.188Z,76.50
2019-06-01T01:02:21.928Z,77.30
2019-06-01T01:05:02.707Z,77.00
2019-06-01T01:07:31.586Z,76.80
2019-06-01T01:10:00.395Z,76.90
2019-06-01T01:12:29.243Z,75.70
2019-06-01T01:14:58.079Z,75.70
2019-06-01T01:17:26.955Z,75.70
2019-06-01T01:19:56.031Z,75.70
2019-06-01T01:22:25.129Z,76.10
2019-06-01T01:24:54.589Z,76.30
2019-06-01T01:27:23.781Z,76.60
2019-06-01T01:29:53.148Z,76.40
2019-06-01T01:32:22.363Z,76.10
2019-06-01T01:34:51.552Z,76.10
2019-06-01T01:37:20.599Z,76.20
2019-06-01T01:39:50.114Z,76.30
2019-06-01T01:42:19.319Z,76.50
2019-06-01T01:44:48.379Z,76.40
2019-06-01T01:47:17.526Z,76.90
2019-06-01T01:49:46.358Z,76.90
2019-06-01T01:52:15.205Z,76.90
2019-06-01T01:54:44.090Z,76.90
2019-06-01T01:57:12.907Z,76.90
2019-06-01T01:59:41.799Z,77.00
2019-06-01T02:02:10.637Z,77.30
2019-06-01T02:04:39.490Z,78.20
2019-06-01T02:07:08.345Z,78.10
2019-06-01T02:09:37.179Z,78.70
2019-06-01T02:12:06.088Z,79.90
2019-06-01T02:14:34.912Z,81.30
2019-06-01T02:17:03.743Z,81.50
2019-06-01T02:19:32.615Z,81.70
2019-06-01T02:22:03.549Z,81.50
2019-06-01T02:24:32.015Z,81.30
2019-06-01T02:27:01.278Z,80.30
2019-06-01T02:29:30.433Z,80.30
2019-06-01T02:32:01.074Z,80.50
2019-06-01T02:34:29.761Z,81.20
2019-06-01T02:37:00.101Z,82.20
2019-06-01T02:39:29.175Z,83.30
2019-06-01T02:41:59.100Z,83.90
2019-06-01T02:44:27.993Z,83.80
2019-06-01T02:46:59.326Z,84.60
2019-06-01T02:49:28.517Z,84.30
2019-06-01T02:51:57.364Z,83.70
2019-06-01T02:54:26.249Z,83.80
2019-06-01T02:56:55.849Z,84.50
2019-06-01T02:59:24.711Z,84.40
2019-06-01T03:01:58.237Z,85.10
2019-06-01T03:04:24.769Z,86.60
2019-06-01T03:06:54.713Z,85.70
2019-06-01T03:09:25.555Z,86.10
2019-06-01T03:11:58.896Z,85.90
2019-06-01T03:14:28.671Z,87.30
2019-06-01T03:16:59.920Z,87.20
2019-06-01T03:19:31.666Z,86.60
2019-06-01T03:22:03.713Z,86.50
2019-06-01T03:24:35.823Z,86.40
2019-06-01T03:27:04.735Z,86.50
2019-06-01T03:29:36.973Z,85.40
2019-06-01T03:32:24.191Z,85.00
2019-06-01T03:34:35.442Z,85.30
2019-06-01T03:37:04.946Z,84.70
2019-06-01T03:39:34.627Z,86.10
2019-06-01T03:42:03.627Z,85.70
2019-06-01T03:44:32.451Z,86.10
2019-06-01T03:47:01.585Z,86.90
2019-06-01T03:49:30.776Z,86.80
2019-06-01T03:52:00.565Z,87.10
2019-06-01T03:54:29.716Z,86.40
2019-06-01T03:56:58.557Z,86.00
2019-06-01T03:59:27.397Z,86.10
2019-06-01T04:01:56.254Z,86.40
2019-06-01T04:04:25.097Z,85.70
2019-06-01T04:06:54.410Z,85.30
2019-06-01T04:09:23.254Z,84.60
2019-06-01T04:11:52.125Z,83.10
2019-06-01T04:14:20.991Z,81.70
2019-06-01T04:16:49.825Z,80.70
2019-06-01T04:19:18.699Z,80.00
2019-06-01T04:21:47.536Z,79.60
2019-06-01T04:24:16.420Z,79.30
2019-06-01T04:26:45.276Z,79.30
2019-06-01T04:29:14.093Z,78.80
2019-06-01T04:31:42.982Z,78.60
2019-06-01T04:34:13.018Z,78.40
2019-06-01T04:36:42.227Z,78.10
2019-06-01T04:39:11.678Z,77.30
2019-06-01T04:41:40.915Z,77.20
2019-06-01T04:44:10.092Z,77.20
2019-06-01T04:46:39.110Z,77.20
2019-06-01T04:49:08.548Z,77.20
2019-06-01T04:51:37.713Z,77.60
2019-06-01T04:54:06.841Z,77.00
2019-06-01T04:56:35.969Z,77.20
2019-06-01T04:59:04.941Z,77.50
2019-06-01T05:01:33.951Z,77.80
2019-06-01T05:04:02.804Z,78.00
2019-06-01T05:06:31.676Z,78.20
2019-06-01T05:09:00.546Z,77.90
2019-06-01T05:11:29.372Z,77.20
2019-06-01T05:13:58.240Z,77.30
2019-06-01T05:16:27.088Z,77.20
2019-06-01T05:18:55.959Z,77.30
2019-06-01T05:21:24.818Z,76.20
2019-06-01T05:23:53.689Z,75.30
2019-06-01T05:26:22.568Z,75.30
2019-06-01T05:28:51.396Z,76.10
2019-06-01T05:31:24.958Z,75.70
2019-06-01T05:33:50.772Z,74.70
2019-06-01T05:36:19.614Z,73.80
2019-06-01T05:38:48.505Z,73.40
2019-06-01T05:41:17.348Z,73.10
2019-06-01T05:43:47.851Z,72.40
2019-06-01T05:46:16.734Z,72.70
2019-06-01T05:48:45.555Z,73.00
2019-06-01T05:51:16.856Z,72.90
2019-06-01T05:53:44.936Z,71.60
2019-06-01T05:56:14.785Z,71.10
2019-06-01T05:58:43.853Z,71.30
2019-06-01T06:01:12.710Z,71.70
2019-06-01T06:03:41.572Z,70.70
2019-06-01T06:06:11.639Z,70.50
2019-06-01T06:08:40.774Z,70.50
2019-06-01T06:11:10.750Z,70.00
2019-06-01T06:13:39.952Z,70.10
2019-06-01T06:16:08.825Z,70.00
2019-06-01T06:18:37.659Z,69.30
2019-06-01T06:21:06.535Z,68.60
2019-06-01T06:23:35.371Z,69.00
2019-06-01T06:26:04.224Z,68.30
2019-06-01T06:28:33.078Z,68.70
2019-06-01T06:31:01.925Z,68.40
2019-06-01T06:33:30.811Z,68.50
2019-06-01T06:35:59.648Z,68.80
2019-06-01T06:38:28.465Z,68.60
2019-06-01T06:40:57.346Z,69.20
2019-06-01T06:43:32.914Z,67.30
2019-06-01T06:45:56.728Z,66.80
2019-06-01T06:48:25.551Z,66.10
2019-06-01T06:50:54.397Z,67.20
2019-06-01T06:53:32.776Z,66.30
2019-06-01T06:55:53.737Z,64.70
2019-06-01T06:58:22.638Z,64.30
2019-06-01T07:00:51.463Z,63.80
2019-06-01T07:03:21.069Z,63.80
2019-06-01T07:05:50.039Z,64.80
2019-06-01T07:08:19.707Z,63.40
2019-06-01T07:10:48.632Z,62.10
2019-06-01T07:13:17.464Z,63.30
2019-06-01T07:15:46.330Z,64.60
2019-06-01T07:18:15.199Z,62.80
2019-06-01T07:20:44.012Z,59.30
2019-06-01T07:23:12.896Z,59.90
2019-06-01T07:25:41.845Z,58.90
2019-06-01T07:28:10.680Z,56.70
2019-06-01T07:30:49.755Z,56.30
2019-06-01T07:33:10.026Z,56.60
2019-06-01T07:35:38.906Z,56.50
2019-06-01T07:38:07.727Z,57.60
2019-06-01T07:40:36.656Z,57.60
2019-06-01T07:43:05.527Z,54.70
2019-06-01T07:45:35.371Z,54.10
2019-06-01T07:48:04.454Z,55.30
2019-06-01T07:50:33.302Z,55.10
2019-06-01T07:53:02.425Z,55.30
2019-06-01T07:55:31.792Z,56.40
2019-06-01T07:58:00.741Z,57.40
2019-06-01T08:00:29.600Z,57.10
2019-06-01T08:02:58.418Z,58.30
2019-06-01T08:05:28.046Z,57.40
2019-06-01T08:07:57.023Z,55.30
2019-06-01T08:10:26.496Z,56.00
2019-06-01T08:12:56.418Z,58.20
2019-06-01T08:15:25.622Z,58.60
2019-06-01T08:17:54.773Z,58.90
2019-06-01T08:20:24.017Z,55.10
2019-06-01T08:22:53.071Z,58.30
2019-06-01T08:25:22.185Z,56.90
2019-06-01T08:27:51.077Z,56.90
2019-06-01T08:30:19.925Z,55.20
2019-06-01T08:32:48.801Z,55.50
2019-06-01T08:35:17.630Z,55.10
2019-06-01T08:37:46.505Z,55.40
2019-06-01T08:40:15.736Z,56.30
2019-06-01T08:42:44.562Z,57.40
2019-06-01T08:45:13.521Z,55.00
2019-06-01T08:47:42.386Z,54.20
2019-06-01T08:50:11.742Z,53.30
2019-06-01T08:52:40.585Z,53.90
2019-06-01T08:55:10.416Z,54.50
2019-06-01T08:57:39.316Z,55.10
2019-06-01T09:00:09.668Z,52.80
2019-06-01T09:02:38.543Z,52.60
2019-06-01T09:05:23.368Z,52.10
2019-06-01T09:07:39.185Z,53.00
2019-06-01T09:10:10.306Z,54.60
2019-06-01T09:12:39.159Z,55.60
2019-06-01T09:15:09.239Z,55.70
2019-06-01T09:17:38.090Z,55.50
2019-06-01T09:20:20.752Z,54.40
2019-06-01T09:23:00.186Z,52.30
2019-06-01T09:25:40.104Z,52.80
2019-06-01T09:28:31.895Z,53.10
2019-06-01T09:30:53.611Z,53.30
2019-06-01T09:33:23.229Z,53.00
2019-06-01T09:36:03.042Z,52.70
2019-06-01T09:38:38.535Z,51.80
2019-06-01T09:41:11.981Z,54.10
2019-06-01T09:43:48.368Z,51.70
2019-06-01T09:46:18.429Z,50.90
2019-06-01T09:48:52.538Z,50.20
2019-06-01T09:51:24.636Z,51.20
2019-06-01T09:53:59.457Z,48.50
2019-06-01T09:56:33.491Z,49.20
2019-06-01T09:59:04.222Z,45.60
2019-06-01T10:01:34.340Z,46.40
2019-06-01T10:04:03.509Z,45.70
2019-06-01T10:06:53.722Z,45.60
2019-06-01T10:09:26.242Z,46.60
2019-06-01T10:11:56.124Z,45.20
2019-06-01T10:14:25.525Z,44.60
2019-06-01T10:16:54.566Z,45.30
2019-06-01T10:19:23.463Z,44.60
2019-06-01T10:21:52.403Z,44.20
2019-06-01T10:24:21.364Z,43.50
2019-06-01T10:26:50.253Z,43.10
2019-06-01T10:29:19.309Z,42.00
2019-06-01T10:31:48.212Z,42.70
2019-06-01T10:34:17.288Z,43.70
2019-06-01T10:36:46.181Z,42.70
2019-06-01T10:39:15.015Z,42.90
2019-06-01T10:41:43.860Z,42.40
2019-06-01T10:44:12.833Z,42.60
2019-06-01T10:46:42.194Z,42.50
2019-06-01T10:49:11.504Z,40.40
2019-06-01T10:51:40.524Z,41.00
2019-06-01T10:54:09.494Z,41.70
2019-06-01T10:56:38.555Z,42.10
2019-06-01T10:59:07.748Z,41.40
2019-06-01T11:01:37.755Z,40.40
2019-06-01T11:04:07.095Z,41.00
2019-06-01T11:06:40.857Z,41.80
2019-06-01T11:09:09.190Z,43.70
2019-06-01T11:11:39.091Z,41.40
2019-06-01T11:14:08.054Z,41.90
2019-06-01T11:16:37.341Z,40.20
2019-06-01T11:19:06.467Z,44.50
2019-06-01T11:21:35.567Z,42.80
2019-06-01T11:24:05.501Z,41.30
2019-06-01T11:26:35.514Z,42.90
2019-06-01T11:29:04.704Z,45.80
2019-06-01T11:31:33.909Z,41.00
2019-06-01T11:34:03.116Z,40.30
2019-06-01T11:36:32.379Z,41.50
2019-06-01T11:39:01.630Z,39.30
2019-06-01T11:41:30.637Z,40.40
2019-06-01T11:43:59.693Z,39.80
2019-06-01T11:46:28.573Z,41.80
2019-06-01T11:48:57.445Z,41.20
2019-06-01T11:51:26.331Z,39.80
2019-06-01T11:53:55.334Z,39.90
2019-06-01T11:56:24.186Z,41.10
2019-06-01T11:58:53.155Z,40.60
2019-06-01T12:01:22.029Z,42.60
2019-06-01T12:03:50.885Z,43.90
2019-06-01T12:06:19.774Z,41.50
2019-06-01T12:08:48.648Z,43.70
2019-06-01T12:11:17.573Z,43.80
2019-06-01T12:13:46.614Z,43.30
2019-06-01T12:16:15.976Z,41.70
2019-06-01T12:18:44.913Z,41.00
2019-06-01T12:21:14.280Z,42.30
2019-06-01T12:23:43.595Z,43.00
2019-06-01T12:26:12.645Z,42.20
2019-06-01T12:28:41.721Z,40.40
2019-06-01T12:31:10.814Z,40.30
2019-06-01T12:33:39.906Z,40.20
2019-06-01T12:36:08.842Z,40.50
2019-06-01T12:38:52.742Z,40.80
2019-06-01T12:41:23.081Z,41.80
2019-06-01T12:43:57.153Z,42.50
2019-06-01T12:46:26.079Z,42.90
2019-06-01T12:48:56.468Z,44.40
2019-06-01T12:51:32.865Z,42.60
2019-06-01T12:54:01.780Z,40.70
2019-06-01T12:56:30.618Z,40.90
2019-06-01T12:58:59.473Z,39.90
2019-06-01T13:01:28.503Z,41.40
2019-06-01T13:03:57.361Z,40.30
2019-06-01T13:06:26.219Z,40.40
2019-06-01T13:08:55.098Z,39.80
2019-06-01T13:11:23.931Z,39.70
2019-06-01T13:13:52.831Z,40.10
2019-06-01T13:16:21.676Z,42.90
2019-06-01T13:18:51.597Z,42.00
2019-06-01T13:21:20.610Z,40.70
2019-06-01T13:23:51.618Z,40.50
2019-06-01T13:26:20.744Z,40.50
2019-06-01T13:28:50.513Z,40.20
2019-06-01T13:31:19.669Z,40.00
2019-06-01T13:33:51.712Z,42.60
2019-06-01T13:36:19.103Z,40.60
2019-06-01T13:38:48.792Z,42.00
2019-06-01T13:41:17.828Z,40.50
2019-06-01T13:43:47.257Z,40.30
2019-06-01T13:46:16.390Z,41.30
2019-06-01T13:48:45.573Z,40.50
2019-06-01T13:51:14.617Z,40.40
2019-06-01T13:53:44.122Z,40.50
2019-06-01T13:56:13.265Z,41.20
2019-06-01T13:58:42.092Z,40.80
2019-06-01T14:01:10.986Z,41.60
2019-06-01T14:03:40.643Z,42.40
2019-06-01T14:06:09.529Z,39.90
2019-06-01T14:08:38.365Z,40.00
2019-06-01T14:11:07.208Z,41.70
2019-06-01T14:13:36.089Z,41.60
2019-06-01T14:16:04.945Z,41.30
2019-06-01T14:18:33.840Z,41.30
2019-06-01T14:21:02.692Z,41.40
2019-06-01T14:23:31.528Z,42.70
2019-06-01T14:26:00.414Z,42.60
2019-06-01T14:28:29.259Z,42.10
2019-06-01T14:30:58.152Z,42.60
2019-06-01T14:33:26.975Z,41.80
2019-06-01T14:35:56.653Z,41.30
2019-06-01T14:38:25.910Z,41.50
2019-06-01T14:40:55.195Z,41.50
2019-06-01T14:43:24.163Z,41.40
2019-06-01T14:45:54.204Z,41.90
2019-06-01T14:48:23.351Z,43.00
2019-06-01T14:50:53.676Z,42.60
2019-06-01T14:53:22.837Z,42.00
2019-06-01T14:55:51.784Z,42.40
2019-06-01T14:58:20.651Z,43.40
2019-06-01T15:00:50.256Z,43.30
2019-06-01T15:03:19.452Z,44.10
2019-06-01T15:05:48.301Z,44.00
2019-06-01T15:08:17.169Z,43.30
2019-06-01T15:10:46.011Z,44.70
2019-06-01T15:13:14.823Z,43.90
2019-06-01T15:15:43.685Z,44.80
2019-06-01T15:18:12.538Z,45.10
2019-06-01T15:20:41.440Z,43.60
2019-06-01T15:23:10.275Z,44.40
2019-06-01T15:25:39.122Z,45.00
2019-06-01T15:28:07.988Z,45.40
2019-06-01T15:30:36.835Z,44.50
2019-06-01T15:33:05.744Z,44.90
2019-06-01T15:35:36.287Z,44.30
2019-06-01T15:38:05.128Z,45.10
2019-06-01T15:40:33.965Z,44.60
2019-06-01T15:43:02.785Z,44.60
2019-06-01T15:45:31.669Z,43.90
2019-06-01T15:48:00.525Z,43.00
2019-06-01T15:50:29.333Z,42.90
2019-06-01T15:52:59.334Z,43.60
2019-06-01T15:55:28.541Z,42.80
2019-06-01T15:57:58.452Z,42.80
2019-06-01T16:00:27.527Z,43.30
2019-06-01T16:02:56.840Z,43.50
2019-06-01T16:05:26.138Z,42.80
2019-06-01T16:07:55.661Z,42.30
2019-06-01T16:10:24.532Z,42.80
2019-06-01T16:12:53.431Z,42.00
2019-06-01T16:15:22.278Z,41.80
2019-06-01T16:17:51.155Z,42.00
2019-06-01T16:20:20.001Z,41.60
2019-06-01T16:22:48.931Z,42.00
2019-06-01T16:25:17.768Z,43.10
2019-06-01T16:27:46.582Z,42.00
2019-06-01T16:30:15.866Z,42.60
2019-06-01T16:32:44.704Z,41.80
2019-06-01T16:35:14.190Z,41.50
2019-06-01T16:37:43.040Z,41.70
2019-06-01T16:40:12.788Z,42.00
2019-06-01T16:42:41.634Z,42.50
2019-06-01T16:45:11.057Z,40.90
2019-06-01T16:47:39.952Z,41.20
2019-06-01T16:50:10.571Z,42.40
2019-06-01T16:52:39.517Z,42.50
2019-06-01T16:55:09.865Z,42.30
2019-06-01T16:57:38.836Z,41.40
2019-06-01T17:00:10.415Z,42.30
2019-06-01T17:02:39.220Z,42.70
2019-06-01T17:05:09.257Z,43.00
2019-06-01T17:07:38.067Z,42.10
2019-06-01T17:10:25.020Z,43.70
2019-06-01T17:12:43.317Z,42.60
2019-06-01T17:15:11.279Z,43.30
2019-06-01T17:17:40.168Z,42.60
2019-06-01T17:20:28.336Z,43.90
2019-06-01T17:22:57.535Z,43.20
2019-06-01T17:25:26.705Z,44.60
2019-06-01T17:27:55.579Z,44.50
2019-06-01T17:30:24.460Z,44.60
2019-06-01T17:32:53.383Z,44.30
2019-06-01T17:35:22.230Z,44.60
2019-06-01T17:37:51.392Z,44.50
2019-06-01T17:40:35.946Z,44.80
2019-06-01T17:42:50.925Z,43.90
2019-06-01T17:45:19.777Z,44.00
2019-06-01T17:47:48.658Z,45.20
2019-06-01T17:50:22.314Z,44.90
2019-06-01T17:52:51.143Z,44.60
2019-06-01T17:55:34.829Z,44.50
2019-06-01T17:58:03.840Z,45.20
2019-06-01T18:00:32.648Z,45.70
2019-06-01T18:03:01.632Z,45.90
2019-06-01T18:05:30.564Z,46.20
2019-06-01T18:07:59.482Z,46.20
2019-06-01T18:10:28.849Z,46.70
2019-06-01T18:12:57.736Z,46.40
2019-06-01T18:15:26.565Z,46.80
2019-06-01T18:17:55.458Z,46.90
2019-06-01T18:20:24.314Z,47.50
2019-06-01T18:22:53.137Z,47.60
2019-06-01T18:25:25.284Z,47.80
2019-06-01T18:27:54.833Z,48.80
2019-06-01T18:30:24.718Z,48.20
2019-06-01T18:32:54.566Z,49.40
2019-06-01T18:35:24.454Z,50.70
2019-06-01T18:37:53.344Z,49.70
2019-06-01T18:40:24.884Z,49.60
2019-06-01T18:43:06.040Z,49.80
2019-06-01T18:45:35.551Z,50.00
2019-06-01T18:48:06.089Z,50.00
2019-06-01T18:50:35.531Z,50.10
2019-06-01T18:53:06.036Z,50.20
2019-06-01T18:55:35.924Z,50.50
2019-06-01T18:58:06.318Z,50.90
2019-06-01T19:00:39.234Z,50.90
2019-06-01T19:03:07.043Z,51.00
2019-06-01T19:05:36.197Z,51.20
2019-06-01T19:08:05.247Z,51.70
2019-06-01T19:10:34.031Z,52.40
2019-06-01T19:13:02.862Z,52.10
2019-06-01T19:15:31.723Z,52.20
2019-06-01T19:18:00.552Z,52.10
2019-06-01T19:20:33.037Z,51.90
2019-06-01T19:22:59.929Z,51.80
2019-06-01T19:25:28.759Z,51.70
2019-06-01T19:27:57.631Z,52.10
2019-06-01T19:30:37.387Z,51.70
2019-06-01T19:33:10.015Z,52.60
2019-06-01T19:35:37.985Z,53.00
2019-06-01T19:38:07.067Z,54.10
2019-06-01T19:40:37.893Z,54.70
2019-06-01T19:43:07.582Z,55.10
2019-06-01T19:45:36.811Z,55.10
2019-06-01T19:48:08.213Z,55.10
2019-06-01T19:50:37.511Z,55.10
2019-06-01T19:53:06.338Z,55.00
2019-06-01T19:55:35.203Z,54.80
2019-06-01T19:58:04.435Z,55.30
2019-06-01T20:00:33.314Z,55.30
2019-06-01T20:03:02.151Z,55.50
2019-06-01T20:05:31.243Z,55.70
2019-06-01T20:08:00.145Z,55.80
2019-06-01T20:10:29.004Z,55.90
2019-06-01T20:12:57.864Z,55.60
2019-06-01T20:15:26.712Z,55.60
2019-06-01T20:17:55.579Z,55.40
2019-06-01T20:20:24.495Z,55.70
2019-06-01T20:22:53.340Z,56.30
2019-06-01T20:25:22.209Z,56.30
2019-06-01T20:27:51.043Z,56.50
2019-06-01T20:30:20.173Z,56.80
2019-06-01T20:32:49.552Z,57.00
2019-06-01T20:35:18.402Z,57.50
2019-06-01T20:37:47.313Z,58.00
2019-06-01T20:40:16.259Z,57.70
2019-06-01T20:42:45.322Z,57.80
2019-06-01T20:45:14.574Z,58.10
2019-06-01T20:47:43.613Z,58.20
2019-06-01T20:50:13.010Z,58.50
2019-06-01T20:52:41.900Z,58.80
2019-06-01T20:55:10.735Z,59.30
2019-06-01T20:57:39.647Z,59.50
2019-06-01T21:00:10.335Z,59.60
2019-06-01T21:02:39.192Z,59.60
2019-06-01T21:05:09.328Z,59.80
2019-06-01T21:07:38.290Z,59.40
2019-06-01T21:10:09.300Z,59.50
2019-06-01T21:12:44.807Z,59.90
2019-06-01T21:15:09.176Z,60.70
2019-06-01T21:17:38.051Z,60.10
2019-06-01T21:20:10.862Z,60.00
2019-06-01T21:22:39.700Z,60.20
2019-06-01T21:25:09.739Z,60.80
2019-06-01T21:27:38.653Z,61.40
2019-06-01T21:30:08.283Z,61.60
2019-06-01T21:32:37.165Z,61.70
2019-06-01T21:35:06.918Z,61.30
2019-06-01T21:37:35.743Z,62.10
2019-06-01T21:40:07.805Z,61.80
2019-06-01T21:42:38.403Z,61.30
2019-06-01T21:45:07.444Z,61.10
2019-06-01T21:47:36.273Z,60.50
2019-06-01T21:50:07.054Z,60.30
2019-06-01T21:52:35.951Z,60.30
2019-06-01T21:55:07.182Z,60.90
2019-06-01T21:57:36.105Z,61.60
2019-06-01T22:00:10.662Z,60.90
2019-06-01T22:02:39.533Z,63.00
2019-06-01T22:05:08.638Z,62.60
2019-06-01T22:07:37.484Z,63.30
2019-06-01T22:10:07.612Z,63.20
2019-06-01T22:12:36.536Z,62.20
2019-06-01T22:15:06.891Z,61.80
2019-06-01T22:17:35.759Z,61.40
2019-06-01T22:20:05.887Z,61.60
2019-06-01T22:22:34.754Z,60.00
2019-06-01T22:25:04.877Z,59.90
2019-06-01T22:27:33.781Z,61.10
2019-06-01T22:30:02.640Z,61.80
2019-06-01T22:32:31.848Z,62.10
2019-06-01T22:35:01.136Z,63.30
2019-06-01T22:37:30.300Z,63.20
2019-06-01T22:39:59.175Z,63.40
2019-06-01T22:42:28.439Z,64.00
2019-06-01T22:44:57.553Z,63.50
2019-06-01T22:47:26.672Z,62.80
2019-06-01T22:49:55.869Z,62.20
2019-06-01T22:52:25.042Z,61.60
2019-06-01T22:54:54.190Z,61.40
2019-06-01T22:57:24.281Z,61.10
2019-06-01T22:59:53.411Z,61.00
2019-06-01T23:02:23.492Z,61.10
2019-06-01T23:04:52.629Z,61.50
2019-06-01T23:07:21.455Z,61.60
2019-06-01T23:09:50.292Z,61.80
2019-06-01T23:12:19.155Z,61.90
2019-06-01T23:14:48.788Z,61.90
2019-06-01T23:17:17.671Z,62.00
2019-06-01T23:19:46.526Z,62.40
2019-06-01T23:22:15.357Z,63.10
2019-06-01T23:24:44.227Z,63.10
2019-06-01T23:27:13.056Z,62.70
2019-06-01T23:29:41.929Z,64.90
2019-06-01T23:32:10.816Z,64.70
2019-06-01T23:34:39.603Z,64.20
2019-06-01T23:37:08.475Z,64.20
2019-06-01T23:39:37.323Z,63.90
2019-06-01T23:42:06.213Z,63.70
2019-06-01T23:44:35.202Z,63.80
2019-06-01T23:47:04.228Z,64.00
2019-06-01T23:49:34.030Z,63.90
2019-06-01T23:52:03.080Z,64.00
2019-06-01T23:54:32.469Z,63.90
2019-06-01T23:57:01.816Z,64.10
2019-06-01T23:59:31.006Z,64.30
